Time;durP1;ratioP1;P1;durP2;ratioP2;P2;SDS_P1;SDS_P2;PMS_P1;PMS_P2;Temp;Humidity;BMP_temperature;BMP_pressure;BME280_temperature;BME280_humidity;BME280_pressure;Samples;Min_cycle;Max_cycle;Signal;HPM_P1;HPM_P2
2021/05/09 00:00:35;;;;;;;5.40;3.17;;;17.00;98.40;;;;;;6407410;22;20152;-88
2021/05/09 00:03:00;;;;;;;8.57;3.90;;;17.10;98.30;;;;;;6407001;22;20584;-87
2021/05/09 00:05:26;;;;;;;6.80;3.33;;;17.00;98.40;;;;;;6407361;22;20136;-88
2021/05/09 00:07:52;;;;;;;8.13;3.60;;;16.90;98.50;;;;;;6407184;22;20140;-88
2021/05/09 00:10:19;;;;;;;8.23;3.97;;;16.90;98.60;;;;;;6407065;22;20149;-88
2021/05/09 00:12:45;;;;;;;9.83;3.90;;;16.90;98.40;;;;;;6433783;22;20144;-88
2021/05/09 00:15:12;;;;;;;10.50;4.13;;;17.00;98.20;;;;;;6434144;22;20179;-88
2021/05/09 00:17:39;;;;;;;7.73;3.33;;;16.80;98.50;;;;;;6433837;22;20143;-88
2021/05/09 00:20:09;;;;;;;8.47;3.90;;;16.90;98.40;;;;;;6433243;22;20143;-87
2021/05/09 00:22:37;;;;;;;8.73;3.47;;;17.00;98.30;;;;;;6433638;22;20145;-87
2021/05/09 00:25:05;;;;;;;7.67;3.90;;;16.90;98.20;;;;;;6407392;22;20163;-87
2021/05/09 00:27:31;;;;;;;8.77;3.60;;;16.80;98.40;;;;;;6405652;22;20170;-88
2021/05/09 00:29:57;;;;;;;6.67;3.30;;;16.60;98.80;;;;;;6408534;22;20169;-87
2021/05/09 00:32:22;;;;;;;6.13;3.37;;;16.60;98.70;;;;;;6407772;22;20671;-88
2021/05/09 00:34:48;;;;;;;6.33;3.50;;;16.60;98.80;;;;;;6409476;22;20144;-88
2021/05/09 00:37:14;;;;;;;6.27;3.27;;;16.80;98.50;;;;;;6408100;22;20196;-87
2021/05/09 00:39:40;;;;;;;5.37;3.10;;;16.80;98.40;;;;;;6408695;22;20140;-87
2021/05/09 00:42:07;;;;;;;5.43;3.13;;;16.70;98.60;;;;;;6407614;22;20145;-87
2021/05/09 00:44:34;;;;;;;6.30;3.30;;;16.70;98.60;;;;;;6434987;22;20136;-88
2021/05/09 00:47:04;;;;;;;4.63;2.73;;;16.50;98.80;;;;;;6408622;22;20185;-88
2021/05/09 00:49:29;;;;;;;6.23;3.20;;;16.60;98.60;;;;;;6436151;22;20167;-87
2021/05/09 00:51:59;;;;;;;7.13;3.27;;;16.70;98.40;;;;;;6408721;22;20199;-88
2021/05/09 00:54:26;;;;;;;8.40;4.00;;;16.80;98.50;;;;;;6435697;22;20155;-88
2021/05/09 00:56:54;;;;;;;6.07;2.63;;;16.60;98.60;;;;;;6436046;22;20143;-87
2021/05/09 00:59:20;;;;;;;5.50;3.10;;;16.60;98.90;;;;;;6435733;22;20141;-87
2021/05/09 01:01:46;;;;;;;10.20;3.40;;;16.60;98.70;;;;;;6410067;22;20161;-88
2021/05/09 01:04:13;;;;;;;6.80;2.93;;;16.50;98.90;;;;;;6437124;22;20476;-87
2021/05/09 01:06:40;;;;;;;4.80;2.70;;;16.50;98.90;;;;;;6436388;22;20144;-87
2021/05/09 01:09:06;;;;;;;6.80;2.80;;;16.50;99.00;;;;;;6436262;22;20142;-87
2021/05/09 01:11:31;;;;;;;6.30;3.43;;;16.40;98.90;;;;;;6411157;22;20181;-87
2021/05/09 01:13:57;;;;;;;4.90;2.90;;;16.30;99.20;;;;;;6411358;22;20226;-87
2021/05/09 01:16:23;;;;;;;4.27;2.80;;;16.40;99.20;;;;;;6412200;22;20633;-90
2021/05/09 01:18:48;;;;;;;6.97;3.13;;;16.40;99.20;;;;;;6410812;22;20206;-87
2021/05/09 01:21:14;;;;;;;6.37;3.10;;;16.40;99.10;;;;;;6416894;22;20144;-87
2021/05/09 01:23:39;;;;;;;6.60;3.20;;;16.40;99.10;;;;;;6428449;22;20142;-87
2021/05/09 01:26:05;;;;;;;7.60;3.83;;;16.40;99.60;;;;;;6414788;22;20172;-87
2021/05/09 01:28:30;;;;;;;6.97;3.10;;;16.30;99.30;;;;;;6410057;22;20139;-89
2021/05/09 01:30:56;;;;;;;7.83;3.43;;;16.30;99.40;;;;;;6409910;22;20179;-87
2021/05/09 01:33:22;;;;;;;9.67;3.30;;;16.20;99.50;;;;;;6409137;22;20174;-87
2021/05/09 01:35:48;;;;;;;6.10;3.30;;;16.20;99.50;;;;;;6409348;22;20152;-88
2021/05/09 01:38:14;;;;;;;6.50;3.33;;;16.20;99.50;;;;;;6409795;22;20144;-87
2021/05/09 01:40:40;;;;;;;5.87;2.80;;;16.20;99.30;;;;;;6409044;22;20146;-87
2021/05/09 01:43:06;;;;;;;5.93;2.93;;;16.30;99.30;;;;;;6408129;22;20136;-87
2021/05/09 01:45:32;;;;;;;6.00;3.00;;;16.30;99.10;;;;;;6408124;22;20140;-87
2021/05/09 01:47:57;;;;;;;7.37;2.90;;;16.40;99.10;;;;;;6408486;22;20592;-87
2021/05/09 01:50:23;;;;;;;7.17;3.67;;;16.40;99.10;;;;;;6407944;22;20154;-87
2021/05/09 01:52:48;;;;;;;8.47;3.13;;;16.30;99.20;;;;;;6407808;22;20201;-86
2021/05/09 01:55:19;;;;;;;6.50;2.57;;;16.10;99.40;;;;;;6408385;22;20196;-87
2021/05/09 01:57:46;;;;;;;9.17;3.07;;;16.10;99.70;;;;;;6434533;22;20151;-88
2021/05/09 02:00:17;;;;;;;7.47;3.10;;;16.10;99.80;;;;;;6434576;22;20522;-87
2021/05/09 02:02:42;;;;;;;6.07;2.70;;;16.00;99.80;;;;;;6435046;22;20163;-88
2021/05/09 02:05:09;;;;;;;9.07;3.90;;;16.10;99.80;;;;;;6408123;22;20148;-88
2021/05/09 02:07:35;;;;;;;6.47;3.80;;;16.00;99.80;;;;;;6435000;22;20599;-88
2021/05/09 02:10:04;;;;;;;7.33;3.67;;;16.10;99.80;;;;;;6434973;22;20182;-88
2021/05/09 02:12:29;;;;;;;5.93;3.10;;;16.00;99.90;;;;;;6435663;22;20179;-88
2021/05/09 02:14:55;;;;;;;8.87;3.63;;;16.00;99.80;;;;;;6409251;22;20208;-88
2021/05/09 02:17:20;;;;;;;7.93;3.13;;;15.90;99.90;;;;;;6408624;22;20158;-88
2021/05/09 02:19:49;;;;;;;4.33;2.93;;;15.90;99.90;;;;;;6409470;22;20148;-88
2021/05/09 02:22:15;;;;;;;6.23;3.03;;;16.00;99.90;;;;;;6408630;22;20138;-87
2021/05/09 02:24:41;;;;;;;5.27;2.83;;;16.00;99.90;;;;;;6408790;22;20683;-88
2021/05/09 02:27:07;;;;;;;5.63;3.33;;;16.00;99.90;;;;;;6435106;22;20473;-88
2021/05/09 02:29:33;;;;;;;7.13;2.93;;;15.90;99.90;;;;;;6407069;22;20172;-88
2021/05/09 02:31:59;;;;;;;7.57;2.90;;;15.70;99.90;;;;;;6407760;22;20265;-88
2021/05/09 02:34:24;;;;;;;8.53;3.20;;;15.80;99.90;;;;;;6407661;22;20297;-88
2021/05/09 02:36:50;;;;;;;4.33;3.10;;;15.70;99.90;;;;;;6408351;22;20146;-88
2021/05/09 02:39:15;;;;;;;5.70;3.10;;;15.80;99.90;;;;;;6407559;22;20139;-87
2021/05/09 02:41:42;;;;;;;5.90;2.83;;;15.80;99.90;;;;;;6407781;22;20242;-87
2021/05/09 02:44:08;;;;;;;4.97;2.90;;;15.70;99.90;;;;;;6433939;22;20151;-88
2021/05/09 02:46:34;;;;;;;4.07;2.77;;;15.70;99.90;;;;;;6407486;22;20147;-88
2021/05/09 02:49:00;;;;;;;8.33;2.80;;;15.70;99.90;;;;;;6407760;22;20580;-88
2021/05/09 02:51:25;;;;;;;3.77;2.80;;;15.70;99.90;;;;;;6407574;22;20509;-87
2021/05/09 02:53:51;;;;;;;4.87;3.00;;;15.60;99.90;;;;;;6407616;22;20167;-87
2021/05/09 02:56:17;;;;;;;5.47;2.80;;;15.60;99.90;;;;;;6407410;22;20461;-87
2021/05/09 02:58:43;;;;;;;5.50;3.23;;;15.70;99.90;;;;;;6408296;22;20480;-88
2021/05/09 03:01:08;;;;;;;5.77;2.97;;;15.60;99.90;;;;;;6406677;22;20175;-88
2021/05/09 03:03:34;;;;;;;6.30;2.97;;;15.60;99.90;;;;;;6407758;22;20164;-88
2021/05/09 03:06:00;;;;;;;8.50;2.83;;;15.60;99.90;;;;;;6407375;22;20137;-88
2021/05/09 03:08:25;;;;;;;10.60;3.27;;;15.70;99.90;;;;;;6407469;22;20159;-87
2021/05/09 03:10:51;;;;;;;4.77;3.03;;;15.70;99.90;;;;;;6407647;22;20176;-87
2021/05/09 03:13:17;;;;;;;7.30;2.90;;;15.60;99.90;;;;;;6407161;22;20243;-88
2021/05/09 03:15:42;;;;;;;4.60;2.73;;;15.60;99.90;;;;;;6408233;22;20565;-88
2021/05/09 03:18:09;;;;;;;4.47;2.97;;;15.50;99.90;;;;;;6407438;22;20143;-88
2021/05/09 03:20:36;;;;;;;4.00;2.50;;;15.40;99.90;;;;;;6406802;22;20563;-87
2021/05/09 03:23:05;;;;;;;4.40;3.10;;;15.60;99.90;;;;;;6407602;22;20148;-87
2021/05/09 03:25:31;;;;;;;7.10;3.17;;;15.50;99.90;;;;;;6433970;22;20203;-88
2021/05/09 03:27:59;;;;;;;4.50;2.63;;;15.50;99.90;;;;;;6408719;22;20137;-87
2021/05/09 03:30:25;;;;;;;7.80;2.93;;;15.60;99.90;;;;;;6434967;22;20147;-87
2021/05/09 03:32:53;;;;;;;5.53;3.00;;;15.60;99.90;;;;;;6435995;22;20735;-87
2021/05/09 03:35:19;;;;;;;4.13;2.70;;;15.60;99.90;;;;;;6409313;22;20510;-88
2021/05/09 03:37:45;;;;;;;5.30;2.97;;;15.50;99.90;;;;;;6437114;22;20166;-88
2021/05/09 03:40:11;;;;;;;5.90;3.23;;;15.50;99.90;;;;;;6413438;22;20253;-88
2021/05/09 03:42:36;;;;;;;5.70;3.03;;;15.50;99.90;;;;;;6410988;22;20140;-88
2021/05/09 03:45:03;;;;;;;5.47;2.70;;;15.50;99.90;;;;;;6406873;22;20143;-87
2021/05/09 03:47:28;;;;;;;6.70;2.73;;;15.60;99.90;;;;;;6434029;22;20148;-88
2021/05/09 03:49:56;;;;;;;3.50;2.53;;;15.70;99.90;;;;;;6407051;22;20149;-88
2021/05/09 03:52:22;;;;;;;5.63;3.07;;;15.60;99.90;;;;;;6433527;22;20184;-88
2021/05/09 03:54:48;;;;;;;4.60;2.67;;;15.60;99.90;;;;;;6434477;22;20147;-88
2021/05/09 03:57:13;;;;;;;6.00;2.47;;;15.40;99.90;;;;;;6407680;22;20236;-88
2021/05/09 03:59:40;;;;;;;3.73;2.47;;;15.50;99.90;;;;;;6409215;22;20172;-87
2021/05/09 04:02:06;;;;;;;4.13;2.40;;;15.50;99.90;;;;;;6446019;22;20162;-88
2021/05/09 04:04:32;;;;;;;3.83;2.70;;;15.50;99.90;;;;;;6424232;22;20135;-88
2021/05/09 04:06:58;;;;;;;4.87;2.43;;;15.60;99.90;;;;;;6434484;22;20174;-88
2021/05/09 04:09:23;;;;;;;7.07;2.57;;;15.40;99.90;;;;;;6407177;22;20558;-88
2021/05/09 04:11:49;;;;;;;4.77;2.53;;;15.50;99.90;;;;;;6408211;22;20228;-88
2021/05/09 04:14:15;;;;;;;5.83;2.77;;;15.60;99.90;;;;;;6407996;22;20148;-87
2021/05/09 04:16:40;;;;;;;4.47;2.60;;;15.40;99.90;;;;;;6434159;22;20585;-88
2021/05/09 04:19:06;;;;;;;5.13;2.73;;;15.40;99.90;;;;;;6408182;22;20146;-88
2021/05/09 04:21:31;;;;;;;3.80;2.50;;;15.30;99.90;;;;;;6407767;22;20151;-88
2021/05/09 04:23:57;;;;;;;7.37;2.80;;;15.50;99.90;;;;;;6407873;22;20620;-88
2021/05/09 04:26:23;;;;;;;6.23;2.63;;;15.50;99.90;;;;;;6407115;22;20172;-87
2021/05/09 04:28:49;;;;;;;5.03;2.53;;;15.40;99.90;;;;;;6405600;22;20146;-87
2021/05/09 04:31:15;;;;;;;6.80;2.77;;;15.50;99.90;;;;;;6433294;22;20184;-87
2021/05/09 04:33:40;;;;;;;4.17;2.57;;;15.40;99.90;;;;;;6406847;22;20254;-87
2021/05/09 04:36:06;;;;;;;3.73;2.30;;;15.40;99.90;;;;;;6406925;22;20148;-88
2021/05/09 04:38:32;;;;;;;8.10;2.40;;;15.40;99.90;;;;;;6406514;22;20460;-88
2021/05/09 04:40:58;;;;;;;5.83;2.63;;;15.50;99.90;;;;;;6406805;22;20145;-88
2021/05/09 04:43:23;;;;;;;4.23;2.43;;;15.40;99.90;;;;;;6434546;22;20137;-88
2021/05/09 04:45:51;;;;;;;3.67;2.40;;;15.50;99.90;;;;;;6407548;22;20143;-88
2021/05/09 04:48:17;;;;;;;6.33;2.17;;;15.70;99.90;;;;;;6435136;22;20150;-87
2021/05/09 04:50:43;;;;;;;6.43;2.37;;;15.70;99.90;;;;;;6381717;22;20631;-87
2021/05/09 04:53:42;;;;;;;3.03;2.43;;;15.90;99.90;;;;;;6433808;22;20197;-87
2021/05/09 04:56:08;;;;;;;5.90;2.37;;;15.90;99.90;;;;;;6338704;22;20586;-87
2021/05/09 04:58:40;;;;;;;3.33;2.60;;;15.90;99.80;;;;;;6433192;22;20148;-87
2021/05/09 05:01:09;;;;;;;5.37;2.67;;;16.00;99.80;;;;;;6433559;22;20142;-87
2021/05/09 05:03:37;;;;;;;3.33;2.10;;;16.10;99.40;;;;;;6432634;22;20577;-87
2021/05/09 05:06:09;;;;;;;4.40;2.70;;;16.30;99.00;;;;;;6433928;22;20144;-88
2021/05/09 05:08:37;;;;;;;6.00;3.00;;;16.20;99.20;;;;;;6406829;22;20204;-87
2021/05/09 05:11:07;;;;;;;3.43;2.57;;;16.20;99.40;;;;;;6406203;22;20180;-87
2021/05/09 05:13:34;;;;;;;3.30;2.40;;;16.30;99.00;;;;;;6406022;22;20150;-87
2021/05/09 05:16:07;;;;;;;4.00;2.80;;;16.40;98.80;;;;;;6433441;22;20146;-87
2021/05/09 05:18:36;;;;;;;4.53;2.57;;;16.40;98.60;;;;;;6405048;22;20148;-87
2021/05/09 05:21:06;;;;;;;3.17;2.20;;;16.50;98.90;;;;;;6432638;22;20148;-88
2021/05/09 05:23:36;;;;;;;3.57;2.53;;;16.40;98.80;;;;;;6432482;22;20645;-87
2021/05/09 05:26:02;;;;;;;7.07;2.57;;;16.50;98.50;;;;;;6431648;22;20175;-88
2021/05/09 05:28:34;;;;;;;3.30;2.03;;;16.60;98.60;;;;;;6432849;22;20138;-87
2021/05/09 05:31:02;;;;;;;3.50;2.70;;;16.70;98.40;;;;;;6405679;22;20179;-89
2021/05/09 05:33:34;;;;;;;3.57;2.23;;;16.80;98.20;;;;;;6408011;22;20195;-88
2021/05/09 05:36:02;;;;;;;3.57;2.37;;;16.90;98.10;;;;;;6435621;22;20468;-88
2021/05/09 05:38:30;;;;;;;2.03;1.70;;;17.00;97.80;;;;;;6435819;22;20159;-88
2021/05/09 05:41:01;;;;;;;4.80;2.23;;;17.10;97.80;;;;;;6408939;22;20160;-88
2021/05/09 05:43:30;;;;;;;4.90;2.30;;;17.20;97.80;;;;;;6408033;22;20206;-87
2021/05/09 05:46:00;;;;;;;3.47;2.50;;;17.20;97.70;;;;;;6435461;22;20169;-87
2021/05/09 05:48:27;;;;;;;4.30;2.30;;;17.30;97.50;;;;;;6435382;22;20645;-88
2021/05/09 05:50:54;;;;;;;5.20;2.17;;;17.40;97.20;;;;;;6408345;22;20520;-87
2021/05/09 05:53:24;;;;;;;3.97;2.43;;;17.60;97.00;;;;;;6434785;22;20137;-87
2021/05/09 05:55:53;;;;;;;3.87;2.27;;;17.50;97.00;;;;;;6435034;22;20207;-87
2021/05/09 05:58:23;;;;;;;5.10;2.27;;;17.50;97.20;;;;;;6408953;22;20141;-88
2021/05/09 06:00:51;;;;;;;5.43;2.13;;;17.60;97.20;;;;;;6435413;22;20570;-88
2021/05/09 06:03:22;;;;;;;3.60;2.70;;;17.80;97.00;;;;;;6409606;22;20462;-88
2021/05/09 06:05:49;;;;;;;2.57;2.37;;;17.90;96.80;;;;;;6409737;22;20145;-88
2021/05/09 06:08:16;;;;;;;5.37;2.33;;;17.90;96.70;;;;;;6383193;22;20154;-87
2021/05/09 06:10:45;;;;;;;3.53;2.53;;;18.10;96.40;;;;;;6436479;22;20144;-88
2021/05/09 06:13:14;;;;;;;6.27;2.43;;;18.20;96.20;;;;;;6436672;22;20146;-87
2021/05/09 06:15:43;;;;;;;2.60;2.13;;;18.20;96.20;;;;;;6408600;22;20154;-87
2021/05/09 06:18:11;;;;;;;4.07;2.13;;;18.20;96.30;;;;;;6408919;22;20142;-87
2021/05/09 06:20:37;;;;;;;3.17;2.20;;;18.10;96.30;;;;;;6408061;22;20577;-87
2021/05/09 06:23:04;;;;;;;3.53;2.17;;;18.20;96.30;;;;;;6407836;22;20139;-87
2021/05/09 06:25:33;;;;;;;3.03;2.13;;;18.20;96.40;;;;;;6434367;22;20170;-87
2021/05/09 06:28:01;;;;;;;3.40;1.90;;;18.30;96.30;;;;;;6408331;22;20164;-87
2021/05/09 06:30:30;;;;;;;4.73;2.33;;;18.30;96.30;;;;;;6434838;22;20248;-87
2021/05/09 06:32:55;;;;;;;3.37;1.87;;;18.30;96.80;;;;;;6407984;22;20599;-88
2021/05/09 06:35:24;;;;;;;4.33;2.33;;;18.30;96.40;;;;;;6409269;22;20237;-87
2021/05/09 06:37:54;;;;;;;2.93;2.50;;;18.30;96.30;;;;;;6436907;22;20192;-87
2021/05/09 06:40:23;;;;;;;3.13;2.37;;;18.30;96.40;;;;;;6411762;22;20143;-88
2021/05/09 06:42:59;;;;;;;4.57;2.60;;;18.40;96.40;;;;;;6450744;22;20143;-86
2021/05/09 06:45:28;;;;;;;4.23;2.50;;;18.50;96.40;;;;;;6441134;22;20150;-87
2021/05/09 06:48:02;;;;;;;4.53;2.10;;;18.40;96.50;;;;;;6435922;22;20511;-87
2021/05/09 06:50:31;;;;;;;4.13;2.27;;;18.50;96.60;;;;;;6434986;22;20161;-88
2021/05/09 06:52:58;;;;;;;2.97;2.10;;;18.60;96.40;;;;;;6433979;22;20146;-88
2021/05/09 06:55:25;;;;;;;5.37;2.50;;;18.80;96.40;;;;;;6434854;22;20160;-88
2021/05/09 06:57:51;;;;;;;3.53;2.37;;;18.90;96.20;;;;;;6437164;22;20150;-87
2021/05/09 07:00:26;;;;;;;3.23;2.30;;;19.00;96.10;;;;;;6409452;22;20148;-89
2021/05/09 07:02:53;;;;;;;3.10;2.27;;;19.10;96.00;;;;;;6414016;22;20252;-88
2021/05/09 07:05:19;;;;;;;3.20;2.37;;;19.20;96.00;;;;;;6412265;22;20150;-88
2021/05/09 07:07:50;;;;;;;3.13;2.00;;;19.30;95.80;;;;;;6411408;22;20193;-88
2021/05/09 07:10:19;;;;;;;2.50;1.90;;;19.30;95.80;;;;;;6408498;22;20144;-88
2021/05/09 07:12:46;;;;;;;3.37;2.00;;;19.40;95.80;;;;;;6435085;22;20231;-88
2021/05/09 07:15:15;;;;;;;4.97;2.37;;;19.50;95.60;;;;;;6433914;22;20521;-87
2021/05/09 07:17:42;;;;;;;2.43;1.77;;;19.70;95.40;;;;;;6433986;22;20148;-88
2021/05/09 07:20:10;;;;;;;3.77;2.10;;;19.90;95.20;;;;;;6408307;22;20146;-88
2021/05/09 07:22:40;;;;;;;1.70;1.60;;;20.00;94.90;;;;;;6407743;22;20155;-88
2021/05/09 07:25:06;;;;;;;2.90;1.90;;;20.10;94.70;;;;;;6407530;22;20508;-89
2021/05/09 07:27:33;;;;;;;3.07;2.27;;;20.10;94.90;;;;;;6435114;22;20282;-87
2021/05/09 07:29:59;;;;;;;3.33;1.90;;;20.10;95.00;;;;;;6407357;22;20139;-86
2021/05/09 07:32:25;;;;;;;6.20;2.20;;;20.10;94.70;;;;;;6407311;22;20195;-87
2021/05/09 07:34:53;;;;;;;4.47;1.90;;;20.10;94.60;;;;;;6407460;22;20179;-87
2021/05/09 07:37:18;;;;;;;4.30;2.30;;;20.20;94.40;;;;;;6407318;22;20143;-87
2021/05/09 07:39:44;;;;;;;3.33;1.70;;;20.30;94.40;;;;;;6407454;22;20187;-87
2021/05/09 07:42:10;;;;;;;3.47;1.93;;;20.50;94.20;;;;;;6407649;22;20149;-94
2021/05/09 07:44:38;;;;;;;2.47;1.83;;;20.60;94.00;;;;;;6408931;22;20165;-86
2021/05/09 07:47:06;;;;;;;2.20;1.73;;;20.80;93.50;;;;;;6409453;22;20174;-86
2021/05/09 07:49:34;;;;;;;3.17;2.10;;;20.90;93.40;;;;;;6407499;22;20153;-88
2021/05/09 07:52:00;;;;;;;3.33;2.10;;;21.00;93.40;;;;;;6406427;22;20206;-88
2021/05/09 07:54:26;;;;;;;2.87;1.83;;;21.00;93.20;;;;;;6407338;22;20140;-87
2021/05/09 07:56:53;;;;;;;3.73;1.93;;;21.10;92.80;;;;;;6407102;22;20154;-88
2021/05/09 07:59:20;;;;;;;3.33;1.73;;;21.00;92.80;;;;;;6407134;22;20285;-86
2021/05/09 08:01:46;;;;;;;4.90;1.70;;;21.00;92.90;;;;;;6406661;22;20250;-88
2021/05/09 08:04:11;;;;;;;2.23;1.83;;;20.80;93.10;;;;;;6433940;22;20189;-88
2021/05/09 08:06:43;;;;;;;2.70;1.90;;;20.70;93.40;;;;;;6406116;22;20591;-87
2021/05/09 08:09:09;;;;;;;3.63;1.93;;;20.70;93.40;;;;;;6407383;22;20168;-87
2021/05/09 08:11:38;;;;;;;5.03;1.90;;;20.70;93.50;;;;;;6406675;22;20259;-88
2021/05/09 08:14:04;;;;;;;4.63;1.80;;;20.80;93.40;;;;;;6406960;22;20195;-87
2021/05/09 08:16:31;;;;;;;3.93;1.90;;;20.90;93.10;;;;;;6407843;22;20153;-88
2021/05/09 08:18:57;;;;;;;3.47;2.20;;;20.90;93.30;;;;;;6407415;22;20147;-88
2021/05/09 08:21:24;;;;;;;3.23;2.20;;;20.90;93.10;;;;;;6406691;22;20221;-87
2021/05/09 08:23:51;;;;;;;3.23;2.00;;;20.90;93.10;;;;;;6407852;22;20484;-88
2021/05/09 08:26:17;;;;;;;2.63;1.60;;;20.90;93.10;;;;;;6407508;22;20169;-87
2021/05/09 08:28:43;;;;;;;4.53;2.03;;;21.00;92.80;;;;;;6407152;22;20484;-88
2021/05/09 08:31:16;;;;;;;4.20;2.20;;;21.10;92.70;;;;;;6407511;22;20266;-88
2021/05/09 08:33:41;;;;;;;4.97;2.43;;;21.20;92.60;;;;;;6407405;22;20171;-88
2021/05/09 08:36:08;;;;;;;2.73;2.10;;;21.20;92.60;;;;;;6407412;22;20153;-88
2021/05/09 08:38:35;;;;;;;2.80;1.97;;;21.30;92.40;;;;;;6407214;22;20590;-88
2021/05/09 08:41:04;;;;;;;2.83;1.97;;;21.50;92.20;;;;;;6434931;22;20133;-88
2021/05/09 08:43:33;;;;;;;4.03;2.00;;;21.50;92.10;;;;;;6407705;22;20536;-88
2021/05/09 08:45:59;;;;;;;3.43;2.17;;;21.50;92.00;;;;;;6408295;22;20145;-90
2021/05/09 08:48:27;;;;;;;3.47;2.20;;;21.60;92.00;;;;;;6408587;22;20195;-90
2021/05/09 08:50:54;;;;;;;2.50;1.93;;;21.70;91.70;;;;;;6407876;22;20629;-88
2021/05/09 08:53:26;;;;;;;3.67;2.00;;;21.90;91.40;;;;;;6408145;22;20574;-89
2021/05/09 08:55:55;;;;;;;3.47;2.53;;;21.90;91.20;;;;;;6407503;22;20580;-88
2021/05/09 08:58:24;;;;;;;4.00;2.00;;;22.00;91.20;;;;;;6434410;22;20148;-89
2021/05/09 09:00:52;;;;;;;2.57;2.13;;;22.10;90.90;;;;;;6435294;22;20198;-88
2021/05/09 09:03:20;;;;;;;4.13;1.90;;;22.10;90.80;;;;;;6408929;22;20144;-88
2021/05/09 09:05:47;;;;;;;4.37;2.23;;;22.10;91.00;;;;;;6438080;22;20148;-89
2021/05/09 09:08:15;;;;;;;3.10;2.13;;;21.90;90.90;;;;;;6437348;22;20145;-88
2021/05/09 09:10:51;;;;;;;2.77;1.80;;;21.60;91.30;;;;;;6436407;22;20161;-87
2021/05/09 09:13:27;;;;;;;4.13;1.90;;;21.40;91.50;;;;;;6436703;22;20145;-88
2021/05/09 09:15:59;;;;;;;3.77;2.50;;;21.40;91.80;;;;;;6410069;22;20530;-88
2021/05/09 09:18:28;;;;;;;4.73;2.20;;;21.20;96.40;;;;;;6438159;22;20165;-89
2021/05/09 09:20:54;;;;;;;6.27;2.70;;;20.90;97.90;;;;;;6413116;22;20151;-89
2021/05/09 09:23:20;;;;;;;4.83;2.33;;;20.90;94.90;;;;;;6444487;22;20215;-87
2021/05/09 09:25:47;;;;;;;5.10;2.20;;;20.80;95.20;;;;;;6414796;22;20171;-88
2021/05/09 09:28:17;;;;;;;3.70;2.30;;;20.80;95.30;;;;;;6436253;22;20140;-88
2021/05/09 09:30:54;;;;;;;3.60;2.20;;;21.00;94.40;;;;;;6432603;22;20139;-88
2021/05/09 09:33:20;;;;;;;6.40;2.57;;;21.10;94.40;;;;;;6408244;22;20161;-88
2021/05/09 09:35:50;;;;;;;6.30;2.33;;;21.20;93.80;;;;;;6408735;22;20148;-88
2021/05/09 09:38:21;;;;;;;3.27;2.00;;;21.20;93.50;;;;;;6435270;22;20148;-88
2021/05/09 09:41:15;;;;;;;4.47;2.20;;;21.20;93.80;;;;;;6409004;22;20140;-88
2021/05/09 09:43:45;;;;;;;3.93;2.57;;;21.20;93.60;;;;;;6437990;22;20141;-88
2021/05/09 09:46:27;;;;;;;4.53;2.50;;;21.20;94.00;;;;;;6439736;22;20149;-88
2021/05/09 09:48:53;;;;;;;4.57;2.47;;;21.30;93.20;;;;;;6409030;22;20211;-89
2021/05/09 09:51:19;;;;;;;4.10;2.37;;;21.50;93.60;;;;;;6412092;22;20489;-89
2021/05/09 09:53:45;;;;;;;4.40;2.47;;;21.70;93.40;;;;;;6411160;22;20141;-89
2021/05/09 09:56:15;;;;;;;3.70;2.50;;;21.90;92.80;;;;;;6409266;22;20158;-89
2021/05/09 09:58:50;;;;;;;3.30;2.20;;;22.20;92.50;;;;;;6408557;22;20242;-89
2021/05/09 10:01:23;;;;;;;3.97;2.00;;;22.50;92.10;;;;;;6409615;22;20577;-88
2021/05/09 10:03:51;;;;;;;3.60;2.03;;;22.70;91.20;;;;;;6409301;22;20165;-89
2021/05/09 10:06:17;;;;;;;5.37;2.10;;;22.80;90.90;;;;;;6436357;22;20147;-88
2021/05/09 10:08:45;;;;;;;4.90;2.07;;;22.90;90.80;;;;;;6409869;22;20165;-89
2021/05/09 10:11:10;;;;;;;4.33;2.17;;;23.10;90.50;;;;;;6436411;22;20173;-89
2021/05/09 10:13:36;;;;;;;4.40;2.10;;;23.20;90.30;;;;;;6409989;22;20170;-90
2021/05/09 10:16:03;;;;;;;4.10;2.70;;;23.20;90.10;;;;;;6407757;22;20181;-89
2021/05/09 10:18:30;;;;;;;5.77;2.03;;;23.10;90.00;;;;;;6434849;22;20144;-89
2021/05/09 10:20:56;;;;;;;5.57;2.57;;;23.00;90.00;;;;;;6435671;22;20252;-88
2021/05/09 10:23:26;;;;;;;5.40;2.50;;;22.80;90.30;;;;;;6409096;22;20558;-87
2021/05/09 10:25:56;;;;;;;4.97;2.37;;;22.70;90.50;;;;;;6408194;22;20550;-88
2021/05/09 10:28:39;;;;;;;6.10;2.70;;;22.40;91.20;;;;;;6435534;22;20158;-89
2021/05/09 10:31:07;;;;;;;3.03;2.00;;;22.30;91.60;;;;;;6435649;22;20177;-89
2021/05/09 10:33:43;;;;;;;4.83;2.43;;;22.20;92.00;;;;;;6436344;22;20498;-87
2021/05/09 10:36:34;;;;;;;4.20;2.70;;;21.90;92.40;;;;;;6409310;22;20176;-88
2021/05/09 10:39:17;;;;;;;6.03;2.40;;;21.70;92.90;;;;;;6408653;22;20156;-88
2021/05/09 10:42:02;;;;;;;5.53;3.33;;;21.60;93.20;;;;;;6436484;22;20193;-90
2021/05/09 10:44:49;;;;;;;6.37;2.67;;;21.70;93.30;;;;;;6409004;22;20156;-89
2021/05/09 10:47:31;;;;;;;5.03;3.00;;;21.60;93.50;;;;;;6435497;22;20139;-90
2021/05/09 10:50:20;;;;;;;8.23;4.40;;;21.60;94.10;;;;;;6436322;22;20160;-89
2021/05/09 10:52:47;;;;;;;7.63;4.00;;;21.50;94.40;;;;;;6435304;22;20623;-89
2021/05/09 10:55:39;;;;;;;4.50;2.80;;;21.50;95.80;;;;;;6434834;22;20148;-89
2021/05/09 10:58:07;;;;;;;6.70;3.30;;;21.40;95.60;;;;;;6434885;22;20143;-89
2021/05/09 11:00:57;;;;;;;2.90;2.60;;;21.20;96.20;;;;;;6435735;22;20147;-90
2021/05/09 11:03:35;;;;;;;4.53;2.93;;;21.00;95.10;;;;;;6408692;22;20147;-89
2021/05/09 11:06:37;;;;;;;4.30;2.83;;;21.00;96.20;;;;;;6409153;22;20500;-87
2021/05/09 11:09:07;;;;;;;5.63;3.13;;;20.90;96.10;;;;;;6435835;22;20144;-88
2021/05/09 11:11:35;;;;;;;4.93;2.97;;;21.00;95.30;;;;;;6435460;22;20181;-90
2021/05/09 11:14:13;;;;;;;4.13;2.97;;;21.00;96.20;;;;;;6408144;22;20226;-88
2021/05/09 11:17:02;;;;;;;6.13;2.67;;;21.00;95.70;;;;;;6407751;22;20149;-89
2021/05/09 11:19:43;;;;;;;7.10;3.13;;;21.10;95.70;;;;;;6434701;22;20599;-89
2021/05/09 11:22:12;;;;;;;3.97;2.60;;;21.30;95.80;;;;;;6434856;22;20472;-89
2021/05/09 11:24:41;;;;;;;5.27;3.13;;;21.60;95.30;;;;;;6435114;22;20164;-90
2021/05/09 11:27:09;;;;;;;7.67;2.77;;;21.90;94.90;;;;;;6434462;22;20206;-90
2021/05/09 11:29:39;;;;;;;4.97;2.90;;;22.10;95.30;;;;;;6434527;22;20158;-90
2021/05/09 11:32:11;;;;;;;3.33;2.00;;;22.60;93.90;;;;;;6434117;22;20194;-89
2021/05/09 11:34:48;;;;;;;3.63;2.00;;;23.30;92.60;;;;;;6434344;22;20143;-90
2021/05/09 11:37:16;;;;;;;4.73;2.00;;;24.00;90.90;;;;;;6407472;22;20548;-89
2021/05/09 11:39:45;;;;;;;5.47;2.63;;;24.50;90.50;;;;;;6407532;22;20135;-89
2021/05/09 11:42:16;;;;;;;3.20;2.57;;;25.00;90.10;;;;;;6434136;22;20618;-90
2021/05/09 11:44:52;;;;;;;5.20;2.50;;;25.70;87.10;;;;;;6430904;22;20151;-90
2021/05/09 11:47:26;;;;;;;2.60;2.17;;;26.00;86.80;;;;;;6433597;22;20139;-90
2021/05/09 11:49:59;;;;;;;4.80;2.87;;;26.00;86.60;;;;;;6433729;22;20233;-90
2021/05/09 11:52:36;;;;;;;3.63;2.63;;;26.30;85.40;;;;;;6433823;22;20254;-90
2021/05/09 11:55:04;;;;;;;5.70;3.37;;;26.20;85.30;;;;;;6433399;22;20169;-89
2021/05/09 11:57:31;;;;;;;3.60;2.90;;;25.50;87.60;;;;;;6433496;22;20147;-90
2021/05/09 12:00:03;;;;;;;4.57;3.10;;;25.70;87.00;;;;;;6433285;22;20163;-89
2021/05/09 12:02:34;;;;;;;4.77;2.53;;;25.50;87.50;;;;;;6432749;22;20151;-89
2021/05/09 12:05:11;;;;;;;6.57;2.47;;;25.80;88.20;;;;;;6433506;22;20140;-89
2021/05/09 12:07:48;;;;;;;4.47;2.53;;;26.60;85.20;;;;;;6433573;22;20451;-90
2021/05/09 12:10:34;;;;;;;4.57;2.40;;;27.70;83.00;;;;;;6434061;22;20146;-90
2021/05/09 12:13:03;;;;;;;2.63;2.40;;;29.10;79.60;;;;;;6433059;22;20559;-90
2021/05/09 12:15:38;;;;;;;5.47;2.50;;;29.70;76.50;;;;;;6431771;22;20725;-90
2021/05/09 12:18:06;;;;;;;3.53;2.87;;;29.80;75.70;;;;;;6433672;22;20150;-91
2021/05/09 12:20:42;;;;;;;4.93;2.87;;;29.70;74.00;;;;;;6434904;22;20147;-90
2021/05/09 12:23:17;;;;;;;4.60;2.27;;;29.30;73.90;;;;;;6420150;22;20147;-90
2021/05/09 12:25:50;;;;;;;4.83;2.33;;;29.00;73.90;;;;;;6423334;22;20170;-90
2021/05/09 12:28:25;;;;;;;5.60;2.47;;;29.50;73.50;;;;;;6439743;22;20143;-91
2021/05/09 12:30:51;;;;;;;4.10;2.30;;;29.90;72.00;;;;;;6434412;22;20557;-90
2021/05/09 12:33:31;;;;;;;2.20;2.00;;;29.80;70.30;;;;;;6432851;22;20163;-90
2021/05/09 12:35:58;;;;;;;4.70;2.03;;;29.80;70.40;;;;;;6433815;22;20139;-90
2021/05/09 12:38:35;;;;;;;5.23;2.03;;;29.30;70.40;;;;;;6433331;22;20143;-90
2021/05/09 12:41:10;;;;;;;3.43;2.07;;;29.40;70.80;;;;;;6406373;22;20484;-90
2021/05/09 12:43:41;;;;;;;5.00;2.50;;;29.00;71.10;;;;;;6433986;22;20142;-90
2021/05/09 12:46:10;;;;;;;5.97;2.27;;;28.60;71.10;;;;;;6407423;22;20147;-92
2021/05/09 12:48:47;;;;;;;2.57;2.20;;;28.90;70.70;;;;;;6408180;22;20136;-93
2021/05/09 12:51:18;;;;;;;3.03;2.20;;;29.50;69.40;;;;;;6406680;22;20178;-90
2021/05/09 12:53:45;;;;;;;4.90;2.70;;;29.90;68.20;;;;;;6404906;22;20154;-90